sensor_id;sensor_type;location;lat;lon;timestamp;P1;durP1;ratioP1;P2;durP2;ratioP2
8849;SDS011;5638;50.860;4.698;2022-12-07T00:01:31;8.53;;;6.03;;
8849;SDS011;5638;50.860;4.698;2022-12-07T00:04:01;8.40;;;6.17;;
8849;SDS011;5638;50.860;4.698;2022-12-07T00:06:30;9.40;;;6.53;;
8849;SDS011;5638;50.860;4.698;2022-12-07T00:09:01;9.03;;;6.70;;
8849;SDS011;5638;50.860;4.698;2022-12-07T00:11:32;9.63;;;6.30;;
8849;SDS011;5638;50.860;4.698;2022-12-07T00:13:59;9.40;;;7.20;;
8849;SDS011;5638;50.860;4.698;2022-12-07T00:16:30;9.37;;;6.57;;
8849;SDS011;5638;50.860;4.698;2022-12-07T00:19:00;10.93;;;6.67;;
8849;SDS011;5638;50.860;4.698;2022-12-07T00:21:29;8.83;;;6.50;;
8849;SDS011;5638;50.860;4.698;2022-12-07T00:24:01;12.27;;;6.93;;
8849;SDS011;5638;50.860;4.698;2022-12-07T00:26:29;12.93;;;6.73;;
8849;SDS011;5638;50.860;4.698;2022-12-07T00:28:59;9.63;;;6.63;;
8849;SDS011;5638;50.860;4.698;2022-12-07T00:31:31;11.40;;;7.03;;
8849;SDS011;5638;50.860;4.698;2022-12-07T00:34:03;11.43;;;6.67;;
8849;SDS011;5638;50.860;4.698;2022-12-07T00:36:32;11.37;;;7.07;;
8849;SDS011;5638;50.860;4.698;2022-12-07T00:38:58;9.00;;;6.67;;
8849;SDS011;5638;50.860;4.698;2022-12-07T00:41:28;8.33;;;6.67;;
8849;SDS011;5638;50.860;4.698;2022-12-07T00:43:55;10.73;;;6.60;;
8849;SDS011;5638;50.860;4.698;2022-12-07T00:46:22;12.20;;;7.60;;
8849;SDS011;5638;50.860;4.698;2022-12-07T00:48:49;9.53;;;6.63;;
8849;SDS011;5638;50.860;4.698;2022-12-07T00:51:17;8.87;;;6.67;;
8849;SDS011;5638;50.860;4.698;2022-12-07T00:53:46;8.73;;;6.93;;
8849;SDS011;5638;50.860;4.698;2022-12-07T00:56:26;9.73;;;7.03;;
8849;SDS011;5638;50.860;4.698;2022-12-07T00:58:54;12.97;;;6.57;;
8849;SDS011;5638;50.860;4.698;2022-12-07T01:01:24;9.63;;;7.33;;
8849;SDS011;5638;50.860;4.698;2022-12-07T01:03:54;11.10;;;6.73;;
8849;SDS011;5638;50.860;4.698;2022-12-07T01:06:21;10.50;;;7.00;;
8849;SDS011;5638;50.860;4.698;2022-12-07T01:08:48;10.90;;;7.20;;
8849;SDS011;5638;50.860;4.698;2022-12-07T01:11:15;9.53;;;6.50;;
8849;SDS011;5638;50.860;4.698;2022-12-07T01:13:44;9.70;;;6.60;;
8849;SDS011;5638;50.860;4.698;2022-12-07T01:16:12;9.87;;;7.00;;
8849;SDS011;5638;50.860;4.698;2022-12-07T01:18:41;10.10;;;7.37;;
8849;SDS011;5638;50.860;4.698;2022-12-07T01:23:39;10.30;;;6.73;;
8849;SDS011;5638;50.860;4.698;2022-12-07T01:26:07;8.87;;;6.80;;
8849;SDS011;5638;50.860;4.698;2022-12-07T01:28:37;9.20;;;7.00;;
8849;SDS011;5638;50.860;4.698;2022-12-07T01:31:13;8.77;;;7.07;;
8849;SDS011;5638;50.860;4.698;2022-12-07T01:33:44;12.27;;;6.87;;
8849;SDS011;5638;50.860;4.698;2022-12-07T01:38:57;13.20;;;7.03;;
8849;SDS011;5638;50.860;4.698;2022-12-07T01:41:28;11.30;;;7.70;;
8849;SDS011;5638;50.860;4.698;2022-12-07T01:46:34;9.90;;;7.50;;
8849;SDS011;5638;50.860;4.698;2022-12-07T01:49:00;10.30;;;7.73;;
8849;SDS011;5638;50.860;4.698;2022-12-07T01:51:28;10.53;;;8.00;;
8849;SDS011;5638;50.860;4.698;2022-12-07T01:53:55;11.30;;;7.43;;
8849;SDS011;5638;50.860;4.698;2022-12-07T01:56:23;10.17;;;7.80;;
8849;SDS011;5638;50.860;4.698;2022-12-07T01:58:53;8.60;;;7.00;;
8849;SDS011;5638;50.860;4.698;2022-12-07T02:01:22;9.80;;;8.60;;
8849;SDS011;5638;50.860;4.698;2022-12-07T02:03:48;10.13;;;7.37;;
8849;SDS011;5638;50.860;4.698;2022-12-07T02:06:16;13.60;;;8.53;;
8849;SDS011;5638;50.860;4.698;2022-12-07T02:08:48;11.77;;;8.13;;
8849;SDS011;5638;50.860;4.698;2022-12-07T02:11:14;10.97;;;8.67;;
8849;SDS011;5638;50.860;4.698;2022-12-07T02:13:42;10.77;;;8.23;;
8849;SDS011;5638;50.860;4.698;2022-12-07T02:22:29;12.97;;;8.30;;
8849;SDS011;5638;50.860;4.698;2022-12-07T02:28:27;11.33;;;8.03;;
8849;SDS011;5638;50.860;4.698;2022-12-07T02:31:10;10.17;;;7.30;;
8849;SDS011;5638;50.860;4.698;2022-12-07T02:33:50;11.47;;;8.37;;
8849;SDS011;5638;50.860;4.698;2022-12-07T02:36:43;12.73;;;9.07;;
8849;SDS011;5638;50.860;4.698;2022-12-07T02:39:34;13.37;;;8.27;;
8849;SDS011;5638;50.860;4.698;2022-12-07T02:42:15;11.07;;;8.23;;
8849;SDS011;5638;50.860;4.698;2022-12-07T02:44:48;12.47;;;7.80;;
8849;SDS011;5638;50.860;4.698;2022-12-07T02:47:16;13.47;;;9.13;;
8849;SDS011;5638;50.860;4.698;2022-12-07T02:49:46;9.90;;;8.13;;
8849;SDS011;5638;50.860;4.698;2022-12-07T02:52:12;12.30;;;8.53;;
8849;SDS011;5638;50.860;4.698;2022-12-07T02:54:38;14.33;;;8.83;;
8849;SDS011;5638;50.860;4.698;2022-12-07T03:00:13;10.33;;;7.80;;
8849;SDS011;5638;50.860;4.698;2022-12-07T03:02:52;11.70;;;8.27;;
8849;SDS011;5638;50.860;4.698;2022-12-07T03:05:42;13.70;;;7.63;;
8849;SDS011;5638;50.860;4.698;2022-12-07T03:11:10;11.60;;;7.90;;
8849;SDS011;5638;50.860;4.698;2022-12-07T03:19:03;11.13;;;7.60;;
8849;SDS011;5638;50.860;4.698;2022-12-07T03:21:38;13.63;;;8.13;;
8849;SDS011;5638;50.860;4.698;2022-12-07T03:24:14;12.73;;;8.30;;
8849;SDS011;5638;50.860;4.698;2022-12-07T03:26:59;13.00;;;8.23;;
8849;SDS011;5638;50.860;4.698;2022-12-07T03:29:38;10.83;;;7.50;;
8849;SDS011;5638;50.860;4.698;2022-12-07T03:32:19;11.40;;;7.57;;
8849;SDS011;5638;50.860;4.698;2022-12-07T03:35:00;10.60;;;7.93;;
8849;SDS011;5638;50.860;4.698;2022-12-07T03:37:57;9.80;;;7.60;;
8849;SDS011;5638;50.860;4.698;2022-12-07T03:41:07;12.07;;;8.20;;
8849;SDS011;5638;50.860;4.698;2022-12-07T03:43:37;13.53;;;8.73;;
8849;SDS011;5638;50.860;4.698;2022-12-07T03:46:07;12.13;;;8.33;;
8849;SDS011;5638;50.860;4.698;2022-12-07T03:48:57;10.23;;;7.70;;
8849;SDS011;5638;50.860;4.698;2022-12-07T03:51:56;10.60;;;7.57;;
8849;SDS011;5638;50.860;4.698;2022-12-07T03:54:53;10.60;;;7.50;;
8849;SDS011;5638;50.860;4.698;2022-12-07T03:57:30;10.07;;;7.60;;
8849;SDS011;5638;50.860;4.698;2022-12-07T03:59:59;11.43;;;7.53;;
8849;SDS011;5638;50.860;4.698;2022-12-07T04:02:28;10.77;;;7.63;;
8849;SDS011;5638;50.860;4.698;2022-12-07T04:04:55;9.73;;;8.10;;
8849;SDS011;5638;50.860;4.698;2022-12-07T04:07:21;10.37;;;7.13;;
8849;SDS011;5638;50.860;4.698;2022-12-07T04:09:47;10.30;;;7.63;;
8849;SDS011;5638;50.860;4.698;2022-12-07T04:12:13;10.47;;;7.67;;
8849;SDS011;5638;50.860;4.698;2022-12-07T04:14:39;11.67;;;7.73;;
8849;SDS011;5638;50.860;4.698;2022-12-07T04:17:05;8.77;;;6.90;;
8849;SDS011;5638;50.860;4.698;2022-12-07T04:19:32;10.30;;;7.60;;
8849;SDS011;5638;50.860;4.698;2022-12-07T04:21:59;10.17;;;7.50;;
8849;SDS011;5638;50.860;4.698;2022-12-07T04:24:29;10.57;;;7.13;;
8849;SDS011;5638;50.860;4.698;2022-12-07T04:26:55;10.17;;;7.47;;
8849;SDS011;5638;50.860;4.698;2022-12-07T04:29:22;10.70;;;6.90;;
8849;SDS011;5638;50.860;4.698;2022-12-07T04:31:48;10.07;;;6.60;;
8849;SDS011;5638;50.860;4.698;2022-12-07T04:34:15;9.53;;;6.63;;
8849;SDS011;5638;50.860;4.698;2022-12-07T04:36:42;9.90;;;6.30;;
8849;SDS011;5638;50.860;4.698;2022-12-07T04:39:13;8.93;;;6.30;;
8849;SDS011;5638;50.860;4.698;2022-12-07T04:41:44;8.73;;;6.57;;
8849;SDS011;5638;50.860;4.698;2022-12-07T04:44:10;8.53;;;6.17;;
8849;SDS011;5638;50.860;4.698;2022-12-07T04:46:39;9.63;;;6.60;;
8849;SDS011;5638;50.860;4.698;2022-12-07T04:49:06;8.77;;;6.17;;
8849;SDS011;5638;50.860;4.698;2022-12-07T04:51:32;12.10;;;7.27;;
8849;SDS011;5638;50.860;4.698;2022-12-07T04:53:58;8.10;;;5.90;;
8849;SDS011;5638;50.860;4.698;2022-12-07T04:56:24;9.30;;;6.43;;
8849;SDS011;5638;50.860;4.698;2022-12-07T04:58:51;10.97;;;6.57;;
8849;SDS011;5638;50.860;4.698;2022-12-07T05:01:19;8.90;;;6.90;;
8849;SDS011;5638;50.860;4.698;2022-12-07T05:03:46;7.03;;;6.07;;
8849;SDS011;5638;50.860;4.698;2022-12-07T05:06:12;8.13;;;6.03;;
8849;SDS011;5638;50.860;4.698;2022-12-07T05:08:39;8.83;;;6.07;;
8849;SDS011;5638;50.860;4.698;2022-12-07T05:11:06;10.03;;;6.43;;
8849;SDS011;5638;50.860;4.698;2022-12-07T05:13:32;9.90;;;6.53;;
8849;SDS011;5638;50.860;4.698;2022-12-07T05:16:01;9.77;;;5.83;;
8849;SDS011;5638;50.860;4.698;2022-12-07T05:18:27;8.20;;;6.07;;
8849;SDS011;5638;50.860;4.698;2022-12-07T05:20:53;7.97;;;5.47;;
8849;SDS011;5638;50.860;4.698;2022-12-07T05:23:19;9.47;;;5.80;;
8849;SDS011;5638;50.860;4.698;2022-12-07T05:25:46;7.30;;;5.60;;
8849;SDS011;5638;50.860;4.698;2022-12-07T05:28:12;7.63;;;5.50;;
8849;SDS011;5638;50.860;4.698;2022-12-07T05:30:37;6.90;;;5.60;;
8849;SDS011;5638;50.860;4.698;2022-12-07T05:33:03;9.17;;;5.93;;
8849;SDS011;5638;50.860;4.698;2022-12-07T05:35:30;9.80;;;6.40;;
8849;SDS011;5638;50.860;4.698;2022-12-07T05:37:56;8.13;;;5.80;;
8849;SDS011;5638;50.860;4.698;2022-12-07T05:40:23;7.57;;;5.70;;
8849;SDS011;5638;50.860;4.698;2022-12-07T05:42:49;8.70;;;5.97;;
8849;SDS011;5638;50.860;4.698;2022-12-07T05:45:15;8.83;;;6.03;;
8849;SDS011;5638;50.860;4.698;2022-12-07T05:47:41;8.37;;;6.40;;
8849;SDS011;5638;50.860;4.698;2022-12-07T05:50:06;9.77;;;6.43;;
8849;SDS011;5638;50.860;4.698;2022-12-07T05:52:32;7.10;;;5.27;;
8849;SDS011;5638;50.860;4.698;2022-12-07T05:54:58;9.93;;;6.03;;
8849;SDS011;5638;50.860;4.698;2022-12-07T05:57:24;8.50;;;5.90;;
8849;SDS011;5638;50.860;4.698;2022-12-07T05:59:50;8.60;;;5.70;;
8849;SDS011;5638;50.860;4.698;2022-12-07T06:02:16;10.47;;;6.30;;
8849;SDS011;5638;50.860;4.698;2022-12-07T06:04:44;11.83;;;5.77;;
8849;SDS011;5638;50.860;4.698;2022-12-07T06:07:12;6.57;;;5.73;;
8849;SDS011;5638;50.860;4.698;2022-12-07T06:09:40;8.53;;;5.57;;
8849;SDS011;5638;50.860;4.698;2022-12-07T06:12:08;8.10;;;6.23;;
8849;SDS011;5638;50.860;4.698;2022-12-07T06:14:55;10.27;;;6.03;;
8849;SDS011;5638;50.860;4.698;2022-12-07T06:17:21;10.43;;;6.57;;
8849;SDS011;5638;50.860;4.698;2022-12-07T06:19:47;6.33;;;5.73;;
8849;SDS011;5638;50.860;4.698;2022-12-07T06:22:13;9.73;;;5.70;;
8849;SDS011;5638;50.860;4.698;2022-12-07T06:24:41;7.90;;;5.73;;
8849;SDS011;5638;50.860;4.698;2022-12-07T06:27:08;9.50;;;6.50;;
8849;SDS011;5638;50.860;4.698;2022-12-07T06:29:35;9.80;;;6.13;;
8849;SDS011;5638;50.860;4.698;2022-12-07T06:32:01;8.10;;;6.20;;
8849;SDS011;5638;50.860;4.698;2022-12-07T06:34:28;10.27;;;7.20;;
8849;SDS011;5638;50.860;4.698;2022-12-07T06:36:54;8.53;;;6.57;;
8849;SDS011;5638;50.860;4.698;2022-12-07T06:39:24;9.73;;;6.70;;
8849;SDS011;5638;50.860;4.698;2022-12-07T06:41:52;9.07;;;6.40;;
8849;SDS011;5638;50.860;4.698;2022-12-07T06:44:19;11.00;;;6.70;;
8849;SDS011;5638;50.860;4.698;2022-12-07T06:46:47;11.60;;;8.27;;
8849;SDS011;5638;50.860;4.698;2022-12-07T06:49:13;10.17;;;6.97;;
8849;SDS011;5638;50.860;4.698;2022-12-07T06:51:40;11.03;;;7.30;;
8849;SDS011;5638;50.860;4.698;2022-12-07T06:54:08;9.53;;;6.33;;
8849;SDS011;5638;50.860;4.698;2022-12-07T06:56:36;9.13;;;6.27;;
8849;SDS011;5638;50.860;4.698;2022-12-07T06:59:03;9.47;;;6.60;;
8849;SDS011;5638;50.860;4.698;2022-12-07T07:01:31;10.53;;;6.30;;
8849;SDS011;5638;50.860;4.698;2022-12-07T07:03:58;9.37;;;6.77;;
8849;SDS011;5638;50.860;4.698;2022-12-07T07:06:24;10.40;;;6.60;;
8849;SDS011;5638;50.860;4.698;2022-12-07T07:08:50;9.10;;;6.70;;
8849;SDS011;5638;50.860;4.698;2022-12-07T07:11:16;8.87;;;6.30;;
8849;SDS011;5638;50.860;4.698;2022-12-07T07:13:42;10.03;;;6.70;;
8849;SDS011;5638;50.860;4.698;2022-12-07T07:16:09;10.73;;;6.70;;
8849;SDS011;5638;50.860;4.698;2022-12-07T07:18:35;14.07;;;7.17;;
8849;SDS011;5638;50.860;4.698;2022-12-07T07:21:02;9.10;;;6.20;;
8849;SDS011;5638;50.860;4.698;2022-12-07T07:23:28;9.07;;;6.37;;
8849;SDS011;5638;50.860;4.698;2022-12-07T07:25:55;10.37;;;7.57;;
8849;SDS011;5638;50.860;4.698;2022-12-07T07:28:21;11.13;;;6.20;;
8849;SDS011;5638;50.860;4.698;2022-12-07T07:30:47;11.47;;;7.37;;
8849;SDS011;5638;50.860;4.698;2022-12-07T07:33:13;14.83;;;7.23;;
8849;SDS011;5638;50.860;4.698;2022-12-07T07:35:40;9.07;;;6.30;;
8849;SDS011;5638;50.860;4.698;2022-12-07T07:38:07;10.23;;;5.50;;
8849;SDS011;5638;50.860;4.698;2022-12-07T07:40:33;8.40;;;5.87;;
8849;SDS011;5638;50.860;4.698;2022-12-07T07:43:00;7.87;;;5.97;;
8849;SDS011;5638;50.860;4.698;2022-12-07T07:45:26;10.57;;;6.23;;
8849;SDS011;5638;50.860;4.698;2022-12-07T07:47:52;8.77;;;6.13;;
8849;SDS011;5638;50.860;4.698;2022-12-07T07:50:18;7.90;;;5.63;;
8849;SDS011;5638;50.860;4.698;2022-12-07T07:52:46;7.87;;;5.40;;
8849;SDS011;5638;50.860;4.698;2022-12-07T07:55:12;8.80;;;5.80;;
8849;SDS011;5638;50.860;4.698;2022-12-07T07:57:39;7.73;;;5.37;;
8849;SDS011;5638;50.860;4.698;2022-12-07T08:00:14;8.53;;;5.00;;
8849;SDS011;5638;50.860;4.698;2022-12-07T08:02:41;10.73;;;5.50;;
8849;SDS011;5638;50.860;4.698;2022-12-07T08:05:08;10.33;;;5.50;;
8849;SDS011;5638;50.860;4.698;2022-12-07T08:07:38;11.17;;;6.03;;
8849;SDS011;5638;50.860;4.698;2022-12-07T08:10:04;10.17;;;5.57;;
8849;SDS011;5638;50.860;4.698;2022-12-07T08:12:35;11.73;;;6.40;;
8849;SDS011;5638;50.860;4.698;2022-12-07T08:15:26;9.07;;;6.87;;
8849;SDS011;5638;50.860;4.698;2022-12-07T08:17:54;8.47;;;5.87;;
8849;SDS011;5638;50.860;4.698;2022-12-07T08:20:20;8.53;;;5.90;;
8849;SDS011;5638;50.860;4.698;2022-12-07T08:22:46;7.63;;;5.80;;
8849;SDS011;5638;50.860;4.698;2022-12-07T08:25:12;7.73;;;5.57;;
8849;SDS011;5638;50.860;4.698;2022-12-07T08:27:38;9.40;;;5.73;;
8849;SDS011;5638;50.860;4.698;2022-12-07T08:30:04;6.70;;;4.97;;
8849;SDS011;5638;50.860;4.698;2022-12-07T08:32:31;12.10;;;5.47;;
8849;SDS011;5638;50.860;4.698;2022-12-07T08:34:56;11.87;;;5.00;;
8849;SDS011;5638;50.860;4.698;2022-12-07T08:37:22;6.80;;;5.03;;
8849;SDS011;5638;50.860;4.698;2022-12-07T08:39:48;7.27;;;5.13;;
8849;SDS011;5638;50.860;4.698;2022-12-07T08:42:14;7.17;;;5.60;;
8849;SDS011;5638;50.860;4.698;2022-12-07T08:44:40;14.93;;;6.17;;
8849;SDS011;5638;50.860;4.698;2022-12-07T08:47:05;7.13;;;5.67;;
8849;SDS011;5638;50.860;4.698;2022-12-07T08:49:36;9.83;;;6.60;;
8849;SDS011;5638;50.860;4.698;2022-12-07T08:52:11;8.57;;;5.63;;
8849;SDS011;5638;50.860;4.698;2022-12-07T08:54:38;9.37;;;5.10;;
8849;SDS011;5638;50.860;4.698;2022-12-07T08:57:05;7.47;;;5.40;;
8849;SDS011;5638;50.860;4.698;2022-12-07T08:59:32;7.27;;;5.43;;
8849;SDS011;5638;50.860;4.698;2022-12-07T09:02:01;8.00;;;4.87;;
8849;SDS011;5638;50.860;4.698;2022-12-07T09:04:26;8.33;;;4.93;;
8849;SDS011;5638;50.860;4.698;2022-12-07T09:06:53;8.30;;;4.90;;
8849;SDS011;5638;50.860;4.698;2022-12-07T09:09:20;6.10;;;4.73;;
8849;SDS011;5638;50.860;4.698;2022-12-07T09:11:46;6.43;;;4.63;;
8849;SDS011;5638;50.860;4.698;2022-12-07T09:14:12;9.53;;;5.67;;
8849;SDS011;5638;50.860;4.698;2022-12-07T09:16:39;9.50;;;5.37;;
8849;SDS011;5638;50.860;4.698;2022-12-07T09:19:05;8.53;;;5.60;;
8849;SDS011;5638;50.860;4.698;2022-12-07T09:21:33;12.87;;;5.50;;
8849;SDS011;5638;50.860;4.698;2022-12-07T09:23:59;8.10;;;5.07;;
8849;SDS011;5638;50.860;4.698;2022-12-07T09:26:25;9.43;;;5.30;;
8849;SDS011;5638;50.860;4.698;2022-12-07T09:28:51;9.37;;;5.47;;
8849;SDS011;5638;50.860;4.698;2022-12-07T09:31:16;6.23;;;4.93;;
8849;SDS011;5638;50.860;4.698;2022-12-07T09:33:42;8.07;;;5.03;;
8849;SDS011;5638;50.860;4.698;2022-12-07T09:36:09;7.93;;;5.50;;
8849;SDS011;5638;50.860;4.698;2022-12-07T09:38:35;7.87;;;5.43;;
8849;SDS011;5638;50.860;4.698;2022-12-07T09:41:05;6.83;;;5.10;;
8849;SDS011;5638;50.860;4.698;2022-12-07T09:43:32;7.50;;;5.40;;
8849;SDS011;5638;50.860;4.698;2022-12-07T09:46:05;8.77;;;4.97;;
8849;SDS011;5638;50.860;4.698;2022-12-07T09:48:35;9.13;;;5.73;;
8849;SDS011;5638;50.860;4.698;2022-12-07T09:51:13;11.10;;;6.20;;
8849;SDS011;5638;50.860;4.698;2022-12-07T09:53:43;10.43;;;6.70;;
8849;SDS011;5638;50.860;4.698;2022-12-07T09:56:13;8.53;;;5.70;;
8849;SDS011;5638;50.860;4.698;2022-12-07T09:58:41;9.13;;;5.40;;
8849;SDS011;5638;50.860;4.698;2022-12-07T10:03:49;8.60;;;6.57;;
8849;SDS011;5638;50.860;4.698;2022-12-07T10:06:41;9.33;;;5.37;;
8849;SDS011;5638;50.860;4.698;2022-12-07T10:09:17;9.03;;;5.53;;
8849;SDS011;5638;50.860;4.698;2022-12-07T10:14:38;8.43;;;5.80;;
8849;SDS011;5638;50.860;4.698;2022-12-07T10:17:51;6.67;;;4.80;;
8849;SDS011;5638;50.860;4.698;2022-12-07T10:20:25;8.00;;;4.87;;
8849;SDS011;5638;50.860;4.698;2022-12-07T10:23:02;9.87;;;5.00;;
8849;SDS011;5638;50.860;4.698;2022-12-07T10:25:37;11.83;;;5.40;;
8849;SDS011;5638;50.860;4.698;2022-12-07T10:30:52;8.77;;;5.33;;
8849;SDS011;5638;50.860;4.698;2022-12-07T10:34:13;6.53;;;4.57;;
8849;SDS011;5638;50.860;4.698;2022-12-07T10:36:24;6.03;;;4.60;;
8849;SDS011;5638;50.860;4.698;2022-12-07T10:39:17;7.97;;;5.23;;
8849;SDS011;5638;50.860;4.698;2022-12-07T10:41:54;7.07;;;4.60;;
8849;SDS011;5638;50.860;4.698;2022-12-07T10:44:29;8.10;;;4.70;;
8849;SDS011;5638;50.860;4.698;2022-12-07T10:47:06;7.33;;;4.70;;
8849;SDS011;5638;50.860;4.698;2022-12-07T10:50:10;6.07;;;4.07;;
8849;SDS011;5638;50.860;4.698;2022-12-07T10:53:03;7.40;;;4.43;;
8849;SDS011;5638;50.860;4.698;2022-12-07T10:58:51;7.77;;;3.77;;
8849;SDS011;5638;50.860;4.698;2022-12-07T11:02:02;7.03;;;3.90;;
8849;SDS011;5638;50.860;4.698;2022-12-07T11:04:54;7.77;;;3.80;;
8849;SDS011;5638;50.860;4.698;2022-12-07T11:08:03;7.50;;;4.20;;
8849;SDS011;5638;50.860;4.698;2022-12-07T11:13:40;9.80;;;5.57;;
8849;SDS011;5638;50.860;4.698;2022-12-07T11:22:01;7.83;;;4.40;;
8849;SDS011;5638;50.860;4.698;2022-12-07T11:24:53;7.10;;;4.63;;
8849;SDS011;5638;50.860;4.698;2022-12-07T11:27:47;5.57;;;4.70;;
8849;SDS011;5638;50.860;4.698;2022-12-07T11:33:40;5.27;;;3.50;;
8849;SDS011;5638;50.860;4.698;2022-12-07T11:42:01;7.33;;;4.73;;
8849;SDS011;5638;50.860;4.698;2022-12-07T11:47:21;6.63;;;3.00;;
8849;SDS011;5638;50.860;4.698;2022-12-07T11:52:53;5.43;;;3.30;;
8849;SDS011;5638;50.860;4.698;2022-12-07T12:07:06;8.67;;;3.20;;
8849;SDS011;5638;50.860;4.698;2022-12-07T12:09:34;6.60;;;3.47;;
8849;SDS011;5638;50.860;4.698;2022-12-07T12:21:26;7.67;;;3.50;;
8849;SDS011;5638;50.860;4.698;2022-12-07T12:26:31;8.67;;;3.33;;
8849;SDS011;5638;50.860;4.698;2022-12-07T12:29:02;4.40;;;3.00;;
8849;SDS011;5638;50.860;4.698;2022-12-07T12:36:53;6.47;;;3.73;;
8849;SDS011;5638;50.860;4.698;2022-12-07T12:39:19;6.30;;;4.03;;
8849;SDS011;5638;50.860;4.698;2022-12-07T12:46:51;4.53;;;2.27;;
8849;SDS011;5638;50.860;4.698;2022-12-07T12:49:32;5.03;;;2.87;;
8849;SDS011;5638;50.860;4.698;2022-12-07T12:54:57;4.50;;;2.80;;
8849;SDS011;5638;50.860;4.698;2022-12-07T12:57:39;5.03;;;2.80;;
8849;SDS011;5638;50.860;4.698;2022-12-07T13:03:25;5.47;;;2.23;;
8849;SDS011;5638;50.860;4.698;2022-12-07T13:06:06;5.27;;;2.57;;
8849;SDS011;5638;50.860;4.698;2022-12-07T13:08:47;5.30;;;2.70;;
8849;SDS011;5638;50.860;4.698;2022-12-07T13:11:25;5.67;;;2.23;;
8849;SDS011;5638;50.860;4.698;2022-12-07T13:17:09;6.23;;;2.50;;
8849;SDS011;5638;50.860;4.698;2022-12-07T13:25:05;7.20;;;2.37;;
8849;SDS011;5638;50.860;4.698;2022-12-07T13:27:54;4.30;;;2.40;;
8849;SDS011;5638;50.860;4.698;2022-12-07T13:30:27;4.37;;;2.30;;
8849;SDS011;5638;50.860;4.698;2022-12-07T13:32:55;4.03;;;2.30;;
8849;SDS011;5638;50.860;4.698;2022-12-07T13:35:31;6.90;;;2.43;;
8849;SDS011;5638;50.860;4.698;2022-12-07T13:38:14;4.53;;;1.97;;
8849;SDS011;5638;50.860;4.698;2022-12-07T13:43:50;6.30;;;2.70;;
8849;SDS011;5638;50.860;4.698;2022-12-07T13:47:09;7.30;;;2.30;;
8849;SDS011;5638;50.860;4.698;2022-12-07T13:49:22;5.20;;;2.67;;
8849;SDS011;5638;50.860;4.698;2022-12-07T13:51:50;4.13;;;2.00;;
8849;SDS011;5638;50.860;4.698;2022-12-07T13:54:18;3.77;;;2.63;;
8849;SDS011;5638;50.860;4.698;2022-12-07T13:56:51;4.93;;;2.30;;
8849;SDS011;5638;50.860;4.698;2022-12-07T13:59:22;4.90;;;2.73;;
8849;SDS011;5638;50.860;4.698;2022-12-07T14:01:51;4.50;;;2.40;;
8849;SDS011;5638;50.860;4.698;2022-12-07T14:07:23;4.40;;;2.00;;
8849;SDS011;5638;50.860;4.698;2022-12-07T14:12:27;3.93;;;2.37;;
8849;SDS011;5638;50.860;4.698;2022-12-07T14:14:55;6.47;;;2.57;;
8849;SDS011;5638;50.860;4.698;2022-12-07T14:17:24;5.40;;;2.60;;
8849;SDS011;5638;50.860;4.698;2022-12-07T14:19:59;5.17;;;2.80;;
8849;SDS011;5638;50.860;4.698;2022-12-07T14:22:34;5.07;;;2.77;;
8849;SDS011;5638;50.860;4.698;2022-12-07T14:25:24;6.13;;;3.17;;
8849;SDS011;5638;50.860;4.698;2022-12-07T14:27:59;6.07;;;3.20;;
8849;SDS011;5638;50.860;4.698;2022-12-07T14:30:30;3.87;;;2.83;;
8849;SDS011;5638;50.860;4.698;2022-12-07T14:33:03;5.70;;;2.90;;
8849;SDS011;5638;50.860;4.698;2022-12-07T14:35:31;10.63;;;2.73;;
8849;SDS011;5638;50.860;4.698;2022-12-07T14:38:01;5.00;;;2.80;;
8849;SDS011;5638;50.860;4.698;2022-12-07T14:40:29;4.97;;;2.33;;
8849;SDS011;5638;50.860;4.698;2022-12-07T14:43:00;4.87;;;2.30;;
8849;SDS011;5638;50.860;4.698;2022-12-07T14:45:37;4.37;;;2.17;;
8849;SDS011;5638;50.860;4.698;2022-12-07T14:48:04;3.17;;;2.13;;
8849;SDS011;5638;50.860;4.698;2022-12-07T14:50:31;3.90;;;2.40;;
8849;SDS011;5638;50.860;4.698;2022-12-07T14:53:07;3.10;;;2.60;;
8849;SDS011;5638;50.860;4.698;2022-12-07T14:55:40;3.37;;;2.20;;
8849;SDS011;5638;50.860;4.698;2022-12-07T14:58:12;2.60;;;2.10;;
8849;SDS011;5638;50.860;4.698;2022-12-07T15:00:40;3.77;;;2.33;;
8849;SDS011;5638;50.860;4.698;2022-12-07T15:03:09;3.33;;;2.07;;
8849;SDS011;5638;50.860;4.698;2022-12-07T15:05:35;3.13;;;2.10;;
8849;SDS011;5638;50.860;4.698;2022-12-07T15:08:02;2.80;;;2.00;;
8849;SDS011;5638;50.860;4.698;2022-12-07T15:10:30;4.30;;;1.97;;
8849;SDS011;5638;50.860;4.698;2022-12-07T15:13:02;7.33;;;2.70;;
8849;SDS011;5638;50.860;4.698;2022-12-07T15:15:47;3.50;;;2.40;;
8849;SDS011;5638;50.860;4.698;2022-12-07T15:18:15;4.20;;;2.60;;
8849;SDS011;5638;50.860;4.698;2022-12-07T15:20:42;4.50;;;2.47;;
8849;SDS011;5638;50.860;4.698;2022-12-07T15:23:09;4.07;;;2.83;;
8849;SDS011;5638;50.860;4.698;2022-12-07T15:25:36;3.40;;;2.57;;
8849;SDS011;5638;50.860;4.698;2022-12-07T15:28:06;6.13;;;2.97;;
8849;SDS011;5638;50.860;4.698;2022-12-07T15:30:32;7.00;;;3.70;;
8849;SDS011;5638;50.860;4.698;2022-12-07T15:32:59;4.90;;;3.07;;
8849;SDS011;5638;50.860;4.698;2022-12-07T15:35:25;4.37;;;3.10;;
8849;SDS011;5638;50.860;4.698;2022-12-07T15:37:51;5.07;;;3.27;;
8849;SDS011;5638;50.860;4.698;2022-12-07T15:40:17;6.97;;;3.57;;
8849;SDS011;5638;50.860;4.698;2022-12-07T15:42:42;3.40;;;2.63;;
8849;SDS011;5638;50.860;4.698;2022-12-07T15:45:08;6.53;;;3.00;;
8849;SDS011;5638;50.860;4.698;2022-12-07T15:47:42;1.80;;;1.60;;
8849;SDS011;5638;50.860;4.698;2022-12-07T15:50:13;3.03;;;2.20;;
8849;SDS011;5638;50.860;4.698;2022-12-07T15:52:41;5.03;;;2.37;;
8849;SDS011;5638;50.860;4.698;2022-12-07T15:55:11;3.10;;;2.27;;
8849;SDS011;5638;50.860;4.698;2022-12-07T15:57:37;3.17;;;2.47;;
8849;SDS011;5638;50.860;4.698;2022-12-07T16:00:07;3.00;;;2.40;;
8849;SDS011;5638;50.860;4.698;2022-12-07T16:02:36;4.63;;;2.53;;
8849;SDS011;5638;50.860;4.698;2022-12-07T16:05:02;4.43;;;2.60;;
8849;SDS011;5638;50.860;4.698;2022-12-07T16:07:28;3.47;;;3.07;;
8849;SDS011;5638;50.860;4.698;2022-12-07T16:09:54;5.93;;;2.93;;
8849;SDS011;5638;50.860;4.698;2022-12-07T16:12:21;6.27;;;3.17;;
8849;SDS011;5638;50.860;4.698;2022-12-07T16:14:46;4.53;;;2.87;;
8849;SDS011;5638;50.860;4.698;2022-12-07T16:17:12;6.13;;;3.10;;
8849;SDS011;5638;50.860;4.698;2022-12-07T16:19:38;4.63;;;3.00;;
8849;SDS011;5638;50.860;4.698;2022-12-07T16:22:04;5.90;;;3.77;;
8849;SDS011;5638;50.860;4.698;2022-12-07T16:24:30;6.00;;;3.10;;
8849;SDS011;5638;50.860;4.698;2022-12-07T16:26:57;5.40;;;2.87;;
8849;SDS011;5638;50.860;4.698;2022-12-07T16:29:23;7.33;;;4.23;;
8849;SDS011;5638;50.860;4.698;2022-12-07T16:31:49;5.50;;;4.00;;
8849;SDS011;5638;50.860;4.698;2022-12-07T16:34:16;11.60;;;7.30;;
8849;SDS011;5638;50.860;4.698;2022-12-07T16:36:42;6.33;;;4.13;;
8849;SDS011;5638;50.860;4.698;2022-12-07T16:39:09;7.40;;;4.73;;
8849;SDS011;5638;50.860;4.698;2022-12-07T16:41:35;6.67;;;4.73;;
8849;SDS011;5638;50.860;4.698;2022-12-07T16:44:05;13.20;;;6.07;;
8849;SDS011;5638;50.860;4.698;2022-12-07T16:46:35;9.90;;;5.00;;
8849;SDS011;5638;50.860;4.698;2022-12-07T16:49:01;10.63;;;6.03;;
8849;SDS011;5638;50.860;4.698;2022-12-07T16:51:28;13.93;;;6.67;;
8849;SDS011;5638;50.860;4.698;2022-12-07T16:53:55;11.23;;;5.93;;
8849;SDS011;5638;50.860;4.698;2022-12-07T16:56:21;8.17;;;4.70;;
8849;SDS011;5638;50.860;4.698;2022-12-07T16:58:47;8.87;;;5.40;;
8849;SDS011;5638;50.860;4.698;2022-12-07T17:01:18;9.17;;;5.00;;
8849;SDS011;5638;50.860;4.698;2022-12-07T17:03:49;10.80;;;6.30;;
8849;SDS011;5638;50.860;4.698;2022-12-07T17:06:22;11.13;;;5.93;;
8849;SDS011;5638;50.860;4.698;2022-12-07T17:08:51;7.27;;;4.97;;
8849;SDS011;5638;50.860;4.698;2022-12-07T17:11:18;6.70;;;4.10;;
8849;SDS011;5638;50.860;4.698;2022-12-07T17:13:51;9.43;;;5.30;;
8849;SDS011;5638;50.860;4.698;2022-12-07T17:16:36;11.17;;;4.53;;
8849;SDS011;5638;50.860;4.698;2022-12-07T17:19:06;4.90;;;3.43;;
8849;SDS011;5638;50.860;4.698;2022-12-07T17:21:34;9.67;;;5.13;;
8849;SDS011;5638;50.860;4.698;2022-12-07T17:24:01;7.67;;;4.73;;
8849;SDS011;5638;50.860;4.698;2022-12-07T17:26:32;7.67;;;4.23;;
8849;SDS011;5638;50.860;4.698;2022-12-07T17:28:58;7.47;;;4.20;;
8849;SDS011;5638;50.860;4.698;2022-12-07T17:31:25;7.67;;;3.93;;
8849;SDS011;5638;50.860;4.698;2022-12-07T17:33:51;9.53;;;5.60;;